Time;durP1;ratioP1;P1;durP2;ratioP2;P2;SDS_P1;SDS_P2;PMS_P1;PMS_P2;Temp;Humidity;BMP_temperature;BMP_pressure;BME280_temperature;BME280_humidity;BME280_pressure;Samples;Min_cycle;Max_cycle;Signal;HPM_P1;HPM_P2
2022/04/29 00:00:16;;;;;;;34.92;18.60;;;;;;;6.53;68.43;98205.18;1724844;81;25468;-75
2022/04/29 00:02:47;;;;;;;31.40;17.55;;;;;;;6.47;68.39;98202.17;1724401;83;26723;-76
2022/04/29 00:05:16;;;;;;;29.98;17.87;;;;;;;6.43;68.48;98197.30;1724362;83;25694;-77
2022/04/29 00:07:43;;;;;;;27.27;15.75;;;;;;;6.35;68.47;98204.00;1724509;83;25726;-75
2022/04/29 00:10:12;;;;;;;28.73;17.07;;;;;;;6.26;68.56;98202.31;1724719;82;25903;-75
2022/04/29 00:12:41;;;;;;;24.65;14.95;;;;;;;6.14;68.65;98202.63;1655549;86;26557;-74
2022/04/29 00:15:14;;;;;;;22.98;14.38;;;;;;;6.14;68.80;98195.93;1625393;88;27454;-74
2022/04/29 00:17:42;;;;;;;21.42;14.30;;;;;;;6.11;68.69;98196.25;1655607;86;25820;-77
2022/04/29 00:20:10;;;;;;;21.30;12.75;;;;;;;6.06;68.68;98198.57;1625545;87;25935;-74
2022/04/29 00:22:37;;;;;;;22.65;13.72;;;;;;;6.03;68.72;98197.58;1655600;86;25701;-75
2022/04/29 00:25:06;;;;;;;20.65;13.75;;;;;;;5.96;68.54;98198.38;1625492;88;25792;-77
2022/04/29 00:27:33;;;;;;;20.97;13.55;;;;;;;5.90;68.57;98199.89;1655693;86;27493;-75
2022/04/29 00:29:59;;;;;;;20.68;12.43;;;;;;;5.75;68.55;98197.45;1625553;88;25513;-74
2022/04/29 00:32:26;;;;;;;20.27;13.30;;;;;;;5.68;68.69;98196.39;1655507;86;25787;-75
2022/04/29 00:34:52;;;;;;;22.42;13.50;;;;;;;5.62;68.84;98197.89;1625516;88;26613;-74
2022/04/29 00:37:19;;;;;;;20.80;13.43;;;;;;;5.60;68.86;98197.21;1655701;86;25722;-74
2022/04/29 00:39:46;;;;;;;21.17;14.38;;;;;;;5.57;68.84;98195.34;1625421;88;27622;-76
2022/04/29 00:42:16;;;;;;;23.83;14.53;;;;;;;5.48;68.86;98199.00;1655471;86;25851;-74
2022/04/29 00:44:47;;;;;;;24.55;13.58;;;;;;;5.40;69.11;98200.64;1625585;88;25776;-74
2022/04/29 00:47:17;;;;;;;27.87;14.85;;;;;;;5.33;69.15;98202.77;1655613;86;26481;-74
2022/04/29 00:49:48;;;;;;;31.07;15.90;;;;;;;5.16;69.24;98200.51;1625656;88;26014;-73
2022/04/29 00:52:18;;;;;;;28.57;15.63;;;;;;;5.15;69.49;98200.16;1655643;86;27624;-75
2022/04/29 00:54:53;;;;;;;24.70;14.47;;;;;;;5.15;69.45;98194.81;1625402;88;25500;-75
2022/04/29 00:57:25;;;;;;;21.45;13.50;;;;;;;5.15;69.40;98193.97;1650106;86;25764;-75
2022/04/29 01:00:08;;;;;;;21.75;12.45;;;;;;;5.09;69.46;98192.75;1557536;91;25838;-75
2022/04/29 01:02:41;;;;;;;25.55;13.40;;;;;;;5.04;69.40;98190.56;1527298;92;25813;-73
2022/04/29 01:05:12;;;;;;;28.77;14.95;;;;;;;5.01;69.40;98192.70;1557676;92;28451;-74
2022/04/29 01:07:41;;;;;;;27.07;15.60;;;;;;;4.90;69.44;98190.30;1527033;92;25858;-75
2022/04/29 01:10:10;;;;;;;27.32;15.40;;;;;;;4.86;69.44;98192.92;1597206;89;25942;-77
2022/04/29 01:12:39;;;;;;;35.63;17.92;;;;;;;4.82;69.47;98195.59;1610059;89;25813;-76
2022/04/29 01:15:13;;;;;;;26.45;15.70;;;;;;;4.79;69.58;98193.23;1609750;89;25831;-75
2022/04/29 01:17:43;;;;;;;26.30;14.68;;;;;;;4.76;69.61;98190.85;1583224;90;27497;-74
2022/04/29 01:20:14;;;;;;;26.48;14.15;;;;;;;4.73;69.52;98196.01;1583270;90;25854;-75
2022/04/29 01:22:42;;;;;;;24.10;14.35;;;;;;;4.68;69.47;98192.48;1514949;94;25822;-76
2022/04/29 01:25:11;;;;;;;28.50;14.55;;;;;;;4.60;69.43;98193.73;1514936;93;25689;-76
2022/04/29 01:27:38;;;;;;;22.30;13.98;;;;;;;4.60;69.59;98195.56;1515028;93;25940;-77
2022/04/29 01:30:10;;;;;;;22.30;13.48;;;;;;;4.61;69.71;98184.72;1514989;94;27462;-76
2022/04/29 01:32:39;;;;;;;24.35;14.03;;;;;;;4.59;69.65;98181.85;1491512;96;26642;-75
2022/04/29 01:35:09;;;;;;;20.55;14.05;;;;;;;4.50;69.56;98178.28;1491320;94;25883;-77
2022/04/29 01:37:35;;;;;;;26.02;14.35;;;;;;;4.37;69.64;98179.17;1490634;96;25798;-78
2022/04/29 01:40:04;;;;;;;48.90;23.42;;;;;;;4.35;69.79;98177.14;1465655;97;25459;-74
2022/04/29 01:42:30;;;;;;;30.97;18.52;;;;;;;4.28;69.85;98182.27;1463127;97;27488;-74
2022/04/29 01:44:57;;;;;;;43.23;23.32;;;;;;;4.26;69.93;98178.06;1462808;98;25882;-77
2022/04/29 01:47:23;;;;;;;39.92;20.43;;;;;;;4.25;70.10;98177.22;1462796;96;25837;-75
2022/04/29 01:49:50;;;;;;;36.93;20.23;;;;;;;4.28;70.19;98177.42;1462702;96;25801;-78
2022/04/29 01:52:17;;;;;;;30.43;16.95;;;;;;;4.22;69.98;98180.23;1462935;97;25909;-74
2022/04/29 01:54:43;;;;;;;30.57;17.65;;;;;;;4.14;69.91;98180.13;1463087;98;27529;-76
2022/04/29 01:57:10;;;;;;;32.28;18.98;;;;;;;4.06;69.86;98181.39;1491703;93;25720;-75
2022/04/29 01:59:37;;;;;;;29.00;17.48;;;;;;;3.97;70.00;98179.14;1506056;93;25854;-74
2022/04/29 02:02:07;;;;;;;24.57;15.28;;;;;;;3.96;70.15;98179.29;1505981;95;25932;-74
2022/04/29 02:04:35;;;;;;;23.45;14.50;;;;;;;3.95;70.24;98177.11;1506062;95;25623;-75
2022/04/29 02:07:03;;;;;;;22.62;14.00;;;;;;;3.92;70.26;98179.23;1513728;92;27711;-77
2022/04/29 02:09:30;;;;;;;19.05;12.65;;;;;;;3.91;70.28;98177.55;1554603;92;25908;-75
2022/04/29 02:12:06;;;;;;;24.18;12.93;;;;;;;3.91;70.25;98180.22;1554816;92;25359;-74
2022/04/29 02:14:37;;;;;;;20.30;13.05;;;;;;;3.88;70.28;98178.69;1554639;92;26329;-75
2022/04/29 02:17:06;;;;;;;23.62;13.03;;;;;;;3.85;70.33;98181.69;1554966;92;26277;-74
2022/04/29 02:19:35;;;;;;;24.37;13.53;;;;;;;3.83;70.39;98180.98;1539130;93;28347;-75
2022/04/29 02:22:04;;;;;;;22.35;15.10;;;;;;;3.84;70.49;98184.00;1531787;93;25382;-77
2022/04/29 02:27:00;;;;;;;32.67;17.77;;;;;;;3.80;70.47;98176.44;1555680;90;25876;-77
2022/04/29 02:29:28;;;;;;;31.52;18.52;;;;;;;3.74;70.46;98178.38;1549391;89;25637;-75
2022/04/29 02:31:56;;;;;;;35.95;20.30;;;;;;;3.69;70.46;98173.48;1614897;88;28261;-76
2022/04/29 02:34:23;;;;;;;33.55;18.60;;;;;;;3.61;70.51;98172.06;1615070;88;25948;-74
2022/04/29 02:36:51;;;;;;;25.75;16.12;;;;;;;3.60;70.52;98174.38;1615109;88;25892;-75
2022/04/29 02:39:18;;;;;;;22.85;14.65;;;;;;;3.57;70.54;98171.51;1626831;87;25882;-75
2022/04/29 02:41:45;;;;;;;21.02;13.08;;;;;;;3.54;70.48;98173.63;1633124;87;25787;-74
2022/04/29 02:44:13;;;;;;;23.52;13.93;;;;;;;3.52;70.52;98171.59;1633336;87;27482;-74
2022/04/29 02:47:06;;;;;;;23.75;14.28;;;;;;;3.50;70.61;98166.40;1580389;90;25762;-74
2022/04/29 02:49:08;;;;;;;20.08;14.10;;;;;;;3.49;70.63;98162.08;1580837;90;25804;-75
2022/04/29 02:51:35;;;;;;;22.60;14.30;;;;;;;3.46;70.63;98166.38;1580701;90;26431;-76
2022/04/29 02:54:02;;;;;;;23.40;14.87;;;;;;;3.43;70.67;98162.66;1580735;90;25902;-75
2022/04/29 02:56:28;;;;;;;22.65;15.10;;;;;;;3.42;70.59;98168.14;1580623;90;28424;-77
2022/04/29 02:58:55;;;;;;;21.57;14.05;;;;;;;3.37;70.61;98162.42;1580593;90;25345;-75
2022/04/29 03:01:21;;;;;;;25.70;15.18;;;;;;;3.33;70.61;98167.70;1580655;90;25811;-74
2022/04/29 03:03:49;;;;;;;28.10;15.68;;;;;;;3.29;70.63;98163.63;1580671;90;26055;-75
2022/04/29 03:06:15;;;;;;;21.02;13.75;;;;;;;3.22;70.65;98164.23;1580667;90;25523;-77
2022/04/29 03:08:42;;;;;;;21.50;13.80;;;;;;;3.19;70.72;98164.52;1574511;89;27625;-75
2022/04/29 03:11:08;;;;;;;23.87;14.58;;;;;;;3.16;70.77;98160.80;1596072;86;25803;-75
2022/04/29 03:13:35;;;;;;;23.62;15.15;;;;;;;3.12;70.82;98164.77;1625338;87;25685;-76
2022/04/29 03:16:02;;;;;;;21.07;13.45;;;;;;;3.08;70.90;98163.38;1631916;87;26543;-77
2022/04/29 03:18:28;;;;;;;21.55;13.55;;;;;;;3.06;70.99;98161.34;1644291;86;26804;-74
2022/04/29 03:20:58;;;;;;;19.65;13.15;;;;;;;3.07;71.03;98169.69;1644148;87;28306;-75
2022/04/29 03:23:26;;;;;;;19.27;13.25;;;;;;;3.04;71.00;98171.31;1671121;82;25726;-74
2022/04/29 03:25:53;;;;;;;24.10;13.95;;;;;;;3.01;71.05;98164.95;1732433;82;25649;-75
2022/04/29 03:28:20;;;;;;;17.85;12.73;;;;;;;3.02;71.06;98174.61;1732694;82;25659;-75
2022/04/29 03:30:47;;;;;;;23.85;13.85;;;;;;;2.99;71.00;98172.75;1732765;82;25773;-76
2022/04/29 03:33:14;;;;;;;19.50;13.35;;;;;;;2.96;71.06;98174.37;1732677;82;27570;-74
2022/04/29 03:35:45;;;;;;;19.32;13.03;;;;;;;2.97;71.08;98173.38;1732397;82;25693;-74
2022/04/29 03:38:12;;;;;;;20.92;13.58;;;;;;;2.94;70.98;98174.50;1579022;90;25856;-74
2022/04/29 03:40:39;;;;;;;25.85;13.88;;;;;;;2.91;70.99;98174.78;1579490;90;25956;-74
2022/04/29 03:43:07;;;;;;;22.10;13.50;;;;;;;2.90;71.07;98177.10;1579598;90;25818;-74
2022/04/29 03:45:34;;;;;;;22.55;14.15;;;;;;;2.89;71.16;98176.30;1579535;90;27409;-74
2022/04/29 03:48:00;;;;;;;22.37;14.98;;;;;;;2.88;71.14;98175.09;1579539;90;26614;-74
2022/04/29 03:50:28;;;;;;;22.40;15.58;;;;;;;2.84;71.20;98177.70;1579536;90;25821;-74
2022/04/29 03:52:58;;;;;;;21.17;14.13;;;;;;;2.82;71.29;98190.33;1579523;90;26312;-77
2022/04/29 03:55:28;;;;;;;22.30;13.48;;;;;;;2.78;71.30;98187.59;1579430;90;25852;-75
2022/04/29 03:57:55;;;;;;;20.68;13.70;;;;;;;2.76;71.38;98190.91;1579588;90;28138;-74
2022/04/29 04:00:24;;;;;;;26.45;15.60;;;;;;;2.75;71.47;98187.89;1579331;90;25854;-74
2022/04/29 04:02:51;;;;;;;22.90;15.40;;;;;;;2.74;71.51;98191.55;1579446;90;25829;-74
2022/04/29 04:05:18;;;;;;;27.37;16.75;;;;;;;2.76;71.65;98194.91;1579311;90;25795;-77
2022/04/29 04:07:45;;;;;;;38.20;17.80;;;;;;;2.80;71.73;98196.29;1573450;90;25755;-76
2022/04/29 04:10:13;;;;;;;28.45;18.17;;;;;;;2.76;71.81;98197.58;1566175;91;27458;-75
2022/04/29 04:12:48;;;;;;;28.25;17.62;;;;;;;2.80;71.96;98194.47;1566142;91;25847;-74
2022/04/29 04:15:20;;;;;;;27.02;16.90;;;;;;;2.83;71.99;98195.52;1565839;91;25803;-75
2022/04/29 04:17:47;;;;;;;30.50;18.50;;;;;;;2.82;72.00;98196.99;1566327;91;25846;-75
2022/04/29 04:20:16;;;;;;;26.48;17.32;;;;;;;2.80;72.13;98197.13;1566260;91;25834;-75
2022/04/29 04:22:43;;;;;;;29.15;17.85;;;;;;;2.79;72.21;98191.94;1566239;91;27580;-74
2022/04/29 04:25:13;;;;;;;27.67;17.77;;;;;;;2.80;72.39;98197.13;1566079;91;25344;-75
2022/04/29 04:27:40;;;;;;;29.25;18.75;;;;;;;2.86;72.46;98194.40;1566106;91;25822;-74
2022/04/29 04:30:09;;;;;;;26.07;17.20;;;;;;;2.90;72.45;98195.77;1566136;91;25774;-77
2022/04/29 04:32:37;;;;;;;29.42;16.90;;;;;;;2.95;72.50;98196.19;1566217;91;25742;-74
2022/04/29 04:35:06;;;;;;;31.90;18.23;;;;;;;3.00;72.56;98199.77;1629813;84;27427;-76
2022/04/29 04:37:33;;;;;;;27.45;18.05;;;;;;;3.04;72.63;98201.14;1695401;84;25658;-77
2022/04/29 04:40:02;;;;;;;27.67;18.17;;;;;;;3.09;72.68;98203.73;1700628;84;25709;-75
2022/04/29 04:42:29;;;;;;;35.85;20.55;;;;;;;3.13;72.69;98203.80;1702659;84;25751;-74
2022/04/29 04:44:56;;;;;;;34.10;21.80;;;;;;;3.20;72.77;98206.72;1703196;84;25668;-74
2022/04/29 04:47:23;;;;;;;38.33;23.00;;;;;;;3.26;72.79;98207.45;1703045;84;27425;-75
2022/04/29 04:49:49;;;;;;;38.15;22.35;;;;;;;3.33;72.79;98210.39;1702904;84;25733;-75
2022/04/29 04:52:16;;;;;;;40.95;21.75;;;;;;;3.39;72.82;98208.45;1703147;83;25747;-75
2022/04/29 04:54:42;;;;;;;42.05;23.45;;;;;;;3.46;72.90;98217.58;1703137;84;25832;-74
2022/04/29 04:57:09;;;;;;;40.50;22.17;;;;;;;3.53;72.93;98217.33;1703197;83;25946;-74
2022/04/29 04:59:35;;;;;;;42.20;22.20;;;;;;;3.60;72.91;98218.43;1703101;83;27231;-75
2022/04/29 05:02:02;;;;;;;46.58;24.52;;;;;;;3.63;73.00;98220.78;1702977;84;25646;-75
2022/04/29 05:04:29;;;;;;;40.33;24.70;;;;;;;3.67;73.14;98220.84;1703116;83;25722;-75
2022/04/29 05:06:56;;;;;;;38.73;23.90;;;;;;;3.69;73.25;98217.53;1703290;84;26472;-75
2022/04/29 05:09:22;;;;;;;43.60;24.80;;;;;;;3.74;73.39;98221.11;1702797;84;25524;-75
2022/04/29 05:11:49;;;;;;;44.42;27.15;;;;;;;3.75;73.51;98222.27;1703107;84;27607;-74
2022/04/29 05:14:16;;;;;;;48.90;29.63;;;;;;;3.78;73.57;98221.14;1703007;84;25717;-77
2022/04/29 05:16:43;;;;;;;48.78;31.65;;;;;;;3.80;73.66;98221.34;1702798;83;26688;-76
2022/04/29 05:19:09;;;;;;;48.20;30.08;;;;;;;3.87;73.77;98217.56;1702952;84;25764;-74
2022/04/29 05:21:36;;;;;;;49.53;28.27;;;;;;;3.92;73.88;98222.81;1703166;84;25889;-74
2022/04/29 05:24:04;;;;;;;43.92;26.85;;;;;;;4.01;74.07;98229.58;1702731;84;28386;-74
2022/04/29 05:26:31;;;;;;;42.43;25.20;;;;;;;4.07;74.18;98227.16;1702980;83;25705;-77
2022/04/29 05:28:57;;;;;;;41.25;24.40;;;;;;;4.16;74.14;98216.89;1703238;83;25308;-75
2022/04/29 05:31:24;;;;;;;39.25;22.73;;;;;;;4.25;74.15;98217.80;1702961;82;25827;-74
2022/04/29 05:33:51;;;;;;;38.42;23.02;;;;;;;4.35;74.16;98214.06;1696791;84;25702;-74
2022/04/29 05:36:18;;;;;;;38.08;24.47;;;;;;;4.45;74.20;98215.35;1696938;84;27565;-74
2022/04/29 05:44:15;;;;;;;39.55;24.60;;;;;;;4.77;74.48;98208.58;1648297;87;25769;-73
2022/04/29 05:46:41;;;;;;;46.95;24.67;;;;;;;4.91;74.54;98210.70;1648659;87;25712;-75
2022/04/29 05:49:08;;;;;;;34.48;23.73;;;;;;;5.01;74.59;98214.11;1648811;85;28605;-74
2022/04/29 05:51:34;;;;;;;34.27;23.20;;;;;;;5.13;74.47;98214.20;1648607;87;26397;-77
2022/04/29 05:54:01;;;;;;;36.13;23.40;;;;;;;5.24;74.24;98211.25;1648573;87;25707;-74
2022/04/29 05:56:30;;;;;;;31.60;22.05;;;;;;;5.35;74.20;98215.00;1648785;87;25850;-77
2022/04/29 05:58:57;;;;;;;34.08;21.33;;;;;;;5.47;74.03;98212.88;1648622;87;26002;-77
2022/04/29 06:01:24;;;;;;;29.42;19.62;;;;;;;5.59;74.01;98214.28;1648480;87;28393;-76
2022/04/29 06:03:50;;;;;;;29.90;19.67;;;;;;;5.71;73.81;98213.49;1648725;87;25982;-77
2022/04/29 06:06:17;;;;;;;29.23;19.48;;;;;;;5.83;73.67;98210.86;1648691;87;25789;-77
2022/04/29 06:08:43;;;;;;;32.60;20.02;;;;;;;5.95;73.60;98208.25;1648985;87;25856;-74
2022/04/29 06:11:10;;;;;;;42.25;24.27;;;;;;;6.07;73.33;98212.31;1648809;87;25421;-74
2022/04/29 06:13:38;;;;;;;51.65;29.50;;;;;;;6.20;73.12;98215.86;1648707;87;27657;-75
2022/04/29 06:16:10;;;;;;;50.08;28.55;;;;;;;6.33;73.09;98216.23;1648697;87;25303;-76
2022/04/29 06:18:35;;;;;;;33.80;22.73;;;;;;;6.47;72.97;98220.95;1648573;87;25664;-77
2022/04/29 06:21:02;;;;;;;41.42;23.40;;;;;;;6.61;72.82;98218.63;1648655;87;25759;-77
2022/04/29 06:23:29;;;;;;;42.35;23.05;;;;;;;6.74;72.60;98214.94;1648765;87;26201;-75
2022/04/29 06:25:56;;;;;;;34.60;22.30;;;;;;;6.85;72.71;98207.39;1648674;87;28268;-76
2022/04/29 06:28:23;;;;;;;36.15;22.95;;;;;;;7.04;72.62;98215.58;1648278;87;25816;-74
2022/04/29 06:30:50;;;;;;;33.65;22.02;;;;;;;7.19;72.54;98209.86;1648769;87;25855;-75
2022/04/29 06:33:17;;;;;;;35.58;21.12;;;;;;;7.34;72.09;98211.35;1648771;87;25761;-75
2022/04/29 06:35:43;;;;;;;33.70;21.85;;;;;;;7.48;72.00;98214.68;1648812;87;25688;-76
2022/04/29 06:38:11;;;;;;;34.55;22.65;;;;;;;7.62;72.08;98210.41;1648748;87;27602;-75
2022/04/29 06:40:37;;;;;;;31.45;22.50;;;;;;;7.78;71.90;98219.77;1660342;84;25353;-74
2022/04/29 06:43:05;;;;;;;32.03;21.48;;;;;;;7.92;71.60;98218.20;1666728;85;25669;-74
2022/04/29 06:45:31;;;;;;;35.78;23.18;;;;;;;8.04;71.22;98212.77;1666917;86;26338;-75
2022/04/29 06:47:58;;;;;;;36.00;24.37;;;;;;;8.17;70.97;98217.08;1666917;86;25761;-75
2022/04/29 06:50:24;;;;;;;31.70;21.33;;;;;;;8.32;70.88;98215.02;1666911;86;27436;-75
2022/04/29 06:52:51;;;;;;;38.38;22.95;;;;;;;8.46;70.59;98218.26;1667185;86;25702;-74
2022/04/29 06:55:17;;;;;;;33.08;22.87;;;;;;;8.60;70.39;98216.15;1666939;86;25784;-77
2022/04/29 06:57:46;;;;;;;37.05;22.90;;;;;;;8.74;70.11;98220.77;1667156;86;25853;-75
2022/04/29 07:00:14;;;;;;;33.88;23.22;;;;;;;8.89;69.93;98216.27;1666999;85;25749;-75
2022/04/29 07:02:41;;;;;;;33.88;23.85;;;;;;;9.02;69.57;98213.81;1667090;86;27469;-75
2022/04/29 07:05:09;;;;;;;33.88;22.50;;;;;;;9.17;69.41;98213.84;1666962;85;25775;-78
2022/04/29 07:07:37;;;;;;;37.73;23.52;;;;;;;9.35;69.23;98210.80;1666324;86;25777;-75
2022/04/29 07:10:05;;;;;;;37.83;24.02;;;;;;;9.54;68.98;98221.56;1667190;86;25879;-77
2022/04/29 07:12:44;;;;;;;35.40;21.37;;;;;;;9.72;68.74;98213.93;1667229;86;25658;-75
2022/04/29 07:15:13;;;;;;;31.60;21.25;;;;;;;9.89;68.40;98212.72;1666077;86;27473;-78
2022/04/29 07:17:44;;;;;;;36.05;21.65;;;;;;;10.07;67.85;98216.36;1666972;86;25772;-77
2022/04/29 07:20:13;;;;;;;30.65;20.60;;;;;;;10.22;67.27;98211.81;1667073;86;25754;-75
2022/04/29 07:22:41;;;;;;;32.17;19.95;;;;;;;10.39;67.27;98215.94;1667046;86;26342;-76
2022/04/29 07:25:11;;;;;;;29.15;20.15;;;;;;;10.56;66.93;98210.31;1667054;86;25752;-77
2022/04/29 07:27:39;;;;;;;32.58;21.20;;;;;;;10.71;66.76;98203.84;1667021;86;27506;-78
2022/04/29 07:30:08;;;;;;;29.85;20.88;;;;;;;10.91;66.41;98205.36;1666959;85;25707;-74
2022/04/29 07:32:34;;;;;;;29.35;18.95;;;;;;;11.11;66.06;98211.77;1667085;86;25277;-75
2022/04/29 07:43:16;;;;;;;25.80;17.80;;;;;;;11.56;64.23;98210.98;1669087;85;25636;-76
2022/04/29 07:45:43;;;;;;;25.12;16.90;;;;;;;11.57;64.16;98207.75;1718550;82;25769;-79
2022/04/29 07:48:11;;;;;;;25.10;18.17;;;;;;;11.72;63.81;98211.16;1686219;85;26473;-78
2022/04/29 07:50:38;;;;;;;25.80;17.20;;;;;;;12.05;63.84;98205.98;1661700;85;25661;-76
2022/04/29 07:53:05;;;;;;;27.48;17.55;;;;;;;12.18;63.08;98207.39;1718581;82;27450;-75
2022/04/29 07:55:31;;;;;;;26.65;18.25;;;;;;;12.27;62.77;98202.11;1686333;85;25694;-78
2022/04/29 07:57:58;;;;;;;19.80;15.30;;;;;;;12.42;62.70;98202.80;1685954;85;25827;-75
2022/04/29 08:00:25;;;;;;;20.23;14.58;;;;;;;12.90;62.13;98195.91;1661578;86;25818;-75
2022/04/29 08:02:52;;;;;;;20.65;12.50;;;;;;;13.43;61.76;98195.92;1718705;83;25670;-78
2022/04/29 08:05:18;;;;;;;15.63;13.25;;;;;;;13.67;60.34;98204.23;1686377;83;28161;-75
2022/04/29 08:07:47;;;;;;;19.05;12.45;;;;;;;13.97;59.74;98200.52;1686067;85;25717;-79
2022/04/29 08:10:13;;;;;;;17.32;13.20;;;;;;;14.21;59.10;98195.42;1686460;83;25715;-75
2022/04/29 08:12:40;;;;;;;22.90;13.55;;;;;;;14.43;59.16;98202.24;1718457;82;25477;-76
2022/04/29 08:15:09;;;;;;;19.77;13.38;;;;;;;14.63;58.28;98195.33;1686300;85;25664;-75
2022/04/29 08:17:38;;;;;;;16.67;13.25;;;;;;;15.05;58.04;98196.53;1661446;86;28207;-79
2022/04/29 08:20:06;;;;;;;20.50;13.35;;;;;;;15.26;57.13;98190.70;1718641;82;25722;-78
2022/04/29 08:22:33;;;;;;;16.97;10.35;;;;;;;15.07;56.32;98192.55;1686408;85;25810;-78
2022/04/29 08:25:00;;;;;;;12.15;10.18;;;;;;;14.75;54.55;98188.98;1661600;86;25799;-75
2022/04/29 08:27:28;;;;;;;15.03;10.72;;;;;;;14.28;54.76;98188.90;1718416;83;25864;-77
2022/04/29 08:29:56;;;;;;;14.75;10.85;;;;;;;14.20;55.46;98180.17;1718514;82;27415;-75
2022/04/29 08:32:23;;;;;;;18.70;12.63;;;;;;;14.18;55.10;98180.39;1686199;83;25764;-75
2022/04/29 08:34:49;;;;;;;17.85;11.75;;;;;;;14.15;55.49;98179.45;1686186;84;25711;-75
2022/04/29 08:37:18;;;;;;;18.42;12.40;;;;;;;14.17;55.55;98177.36;1661639;86;25852;-78
2022/04/29 08:39:45;;;;;;;24.18;14.58;;;;;;;14.24;55.16;98178.70;1718547;82;25689;-76
2022/04/29 08:42:11;;;;;;;24.47;14.75;;;;;;;14.33;54.58;98176.05;1686080;85;27420;-75
2022/04/29 08:44:42;;;;;;;21.35;13.55;;;;;;;14.30;54.14;98179.19;1686158;85;25767;-78
2022/04/29 08:47:08;;;;;;;13.83;10.60;;;;;;;14.29;53.81;98180.23;1661487;86;25709;-77
2022/04/29 08:49:36;;;;;;;17.75;11.57;;;;;;;14.21;53.46;98181.32;1718356;82;25834;-77
2022/04/29 08:52:04;;;;;;;14.15;9.00;;;;;;;14.43;53.50;98178.31;1718247;82;25464;-76
2022/04/29 09:00:05;;;;;;;12.80;9.08;;;;;;;15.89;51.79;98183.75;1685887;83;25759;-77
2022/04/29 09:02:40;;;;;;;14.50;8.13;;;;;;;15.83;49.85;98184.63;1718450;82;25845;-79
2022/04/29 09:05:09;;;;;;;13.15;8.18;;;;;;;15.39;49.58;98179.71;1718504;83;25706;-76
2022/04/29 09:08:01;;;;;;;13.83;9.08;;;;;;;15.28;49.10;98180.97;1718419;82;27373;-77
2022/04/29 09:10:34;;;;;;;16.75;9.75;;;;;;;15.23;49.43;98176.70;1652214;85;25838;-78
2022/04/29 09:13:17;;;;;;;13.88;9.03;;;;;;;15.34;49.86;98180.89;1593476;90;25848;-79
2022/04/29 09:16:01;;;;;;;14.65;7.92;;;;;;;15.47;49.50;98178.58;1504937;95;25801;-79
2022/04/29 09:18:46;;;;;;;16.87;8.95;;;;;;;16.05;50.27;98176.34;1504808;95;25555;-77
2022/04/29 09:21:16;;;;;;;11.35;8.80;;;;;;;16.63;49.32;98167.65;1468135;96;27498;-78
2022/04/29 09:23:47;;;;;;;9.63;7.67;;;;;;;17.10;49.27;98154.97;1505823;95;26145;-76
2022/04/29 09:26:29;;;;;;;10.40;7.83;;;;;;;17.48;48.43;98155.06;1506011;95;25862;-79
2022/04/29 09:29:11;;;;;;;11.48;7.83;;;;;;;17.93;48.09;98152.55;1505851;95;25900;-75
2022/04/29 09:31:57;;;;;;;;;;;;;;;18.34;47.41;98147.41;1492547;96;25441;-77
2022/04/29 09:34:46;;;;;;;11.78;8.23;;;;;;;18.48;44.58;98146.56;1490335;96;27516;-77
2022/04/29 09:37:21;;;;;;;10.40;8.70;;;;;;;18.79;45.39;98144.74;1490344;96;26580;-77
2022/04/29 09:40:00;;;;;;;13.32;8.65;;;;;;;19.03;44.45;98143.53;1490477;96;26221;-77
2022/04/29 09:42:43;;;;;;;14.15;9.33;;;;;;;19.18;44.61;98146.23;1490102;96;25824;-80
2022/04/29 09:45:24;;;;;;;13.20;9.98;;;;;;;19.44;44.19;98141.47;1465761;97;25917;-77
2022/04/29 09:48:01;;;;;;;14.80;9.08;;;;;;;19.05;42.32;98146.86;1454429;97;27496;-76
2022/04/29 09:50:50;;;;;;;13.40;8.83;;;;;;;18.40;42.55;98142.86;1415190;101;25882;-76
2022/04/29 09:53:20;;;;;;;12.00;8.25;;;;;;;18.04;43.34;98141.30;1423788;100;26782;-76
2022/04/29 09:56:08;;;;;;;12.33;8.50;;;;;;;17.75;43.24;98145.32;1420059;101;26693;-79
2022/04/29 09:58:35;;;;;;;13.85;8.58;;;;;;;17.77;43.30;98143.72;1408712;101;25493;-78
2022/04/29 10:01:04;;;;;;;10.72;7.45;;;;;;;18.15;43.58;98144.01;1395901;102;27466;-77
2022/04/29 10:03:32;;;;;;;12.18;9.05;;;;;;;18.69;43.68;98150.86;1408577;101;25948;-79
2022/04/29 10:06:02;;;;;;;12.05;9.08;;;;;;;19.00;42.45;98145.38;1408721;101;25881;-77
2022/04/29 10:08:31;;;;;;;13.00;8.35;;;;;;;19.35;42.38;98148.41;1390102;101;25934;-78
2022/04/29 10:10:58;;;;;;;14.75;8.60;;;;;;;19.61;42.03;98133.24;1440370;98;25884;-76
2022/04/29 10:13:28;;;;;;;8.65;7.55;;;;;;;19.44;40.89;98134.05;1454589;98;28344;-77
2022/04/29 10:15:54;;;;;;;11.43;9.63;;;;;;;19.29;41.02;98145.32;1454552;98;25835;-76
2022/04/29 10:21:15;;;;;;;11.93;8.28;;;;;;;18.76;41.47;98136.19;1536890;91;25912;-76
2022/04/29 10:23:48;;;;;;;14.23;8.65;;;;;;;18.53;41.58;98136.57;1536881;91;25846;-79
2022/04/29 10:26:12;;;;;;;11.88;8.28;;;;;;;18.47;41.35;98139.47;1536922;91;27461;-79
2022/04/29 10:28:39;;;;;;;10.53;7.90;;;;;;;18.35;41.17;98129.94;1536861;91;25829;-76
2022/04/29 10:31:06;;;;;;;12.90;8.60;;;;;;;18.38;41.43;98121.77;1537006;91;25862;-76
2022/04/29 10:33:36;;;;;;;12.90;8.40;;;;;;;18.35;41.19;98131.31;1536645;91;25942;-77
2022/04/29 10:36:10;;;;;;;10.80;8.35;;;;;;;18.32;41.56;98124.95;1552120;91;25777;-77
2022/04/29 10:38:43;;;;;;;14.38;8.53;;;;;;;18.30;41.12;98117.00;1562014;88;27505;-78
2022/04/29 10:41:17;;;;;;;11.38;7.55;;;;;;;18.43;41.10;98110.95;1618891;87;25967;-78
2022/04/29 10:43:51;;;;;;;9.40;7.08;;;;;;;18.71;41.33;98106.86;1629099;87;25792;-77
2022/04/29 10:46:26;;;;;;;15.35;7.33;;;;;;;19.25;40.88;98108.57;1629194;87;25752;-77
2022/04/29 10:48:54;;;;;;;11.57;8.20;;;;;;;19.26;40.37;98102.84;1569587;91;25809;-78
2022/04/29 10:51:28;;;;;;;12.07;7.83;;;;;;;18.98;39.07;98102.39;1569443;91;27239;-77
2022/04/29 10:53:57;;;;;;;10.65;7.58;;;;;;;18.26;38.33;98103.52;1557043;92;25784;-77
2022/04/29 10:56:35;;;;;;;12.10;7.70;;;;;;;17.90;38.90;98105.23;1555466;91;25885;-80
2022/04/29 10:59:10;;;;;;;15.85;8.00;;;;;;;17.75;39.44;98100.27;1546519;92;25787;-78
2022/04/29 11:01:39;;;;;;;10.58;7.53;;;;;;;17.77;39.46;98097.30;1546263;92;26014;-78
2022/04/29 11:04:17;;;;;;;12.75;7.67;;;;;;;17.66;39.25;98090.80;1546492;92;27579;-79
2022/04/29 11:06:49;;;;;;;11.50;7.65;;;;;;;17.75;39.28;98092.08;1539843;93;26372;-80
2022/04/29 11:09:41;;;;;;;9.35;6.95;;;;;;;18.14;40.21;98093.16;1535565;93;25812;-77
2022/04/29 11:12:32;;;;;;;9.48;7.50;;;;;;;18.49;39.28;98088.08;1503339;95;25731;-79
2022/04/29 11:15:18;;;;;;;6.78;6.08;;;;;;;18.54;38.18;98085.45;1503316;95;25821;-78
2022/04/29 11:17:45;;;;;;;9.63;6.60;;;;;;;18.90;38.13;98083.66;1503235;95;27542;-77
2022/04/29 11:20:24;;;;;;;10.05;6.87;;;;;;;19.46;38.09;98089.16;1503260;95;25832;-77
2022/04/29 11:25:58;;;;;;;5.67;4.87;;;;;;;20.01;36.94;98078.18;1510478;91;26634;-78
2022/04/29 11:28:27;;;;;;;11.60;6.43;;;;;;;20.40;36.77;98077.03;1566997;91;25814;-78
2022/04/29 11:31:10;;;;;;;10.28;6.10;;;;;;;20.49;36.92;98072.73;1566730;91;28081;-78
2022/04/29 11:33:38;;;;;;;8.40;5.72;;;;;;;20.81;36.61;98071.92;1544101;92;26130;-78
2022/04/29 11:36:10;;;;;;;9.35;6.00;;;;;;;20.95;35.67;98064.91;1516594;94;25827;-75
2022/04/29 11:38:49;;;;;;;8.18;5.83;;;;;;;21.03;35.34;98063.05;1515378;94;25916;-76
2022/04/29 11:41:21;;;;;;;10.23;6.42;;;;;;;20.96;34.77;98069.31;1499167;93;25887;-76
2022/04/29 11:43:50;;;;;;;8.53;5.97;;;;;;;21.03;34.12;98056.19;1516237;94;27527;-78
2022/04/29 11:46:21;;;;;;;10.98;5.90;;;;;;;21.19;34.56;98057.16;1492557;94;26618;-75
2022/04/29 11:48:57;;;;;;;11.78;7.92;;;;;;;21.32;34.10;98058.63;1480113;96;25886;-76
2022/04/29 11:51:28;;;;;;;11.60;8.98;;;;;;;21.32;34.10;98058.63;1483548;96;25702;-78
2022/04/29 11:54:04;;;;;;;13.43;8.55;;;;;;;20.72;34.32;98027.68;1478842;97;26435;-77
2022/04/29 11:56:33;;;;;;;14.60;8.10;;;;;;;20.39;34.34;98049.32;1478788;97;28258;-77
2022/04/29 11:59:00;;;;;;;13.08;8.33;;;;;;;19.62;34.47;98049.47;1478581;96;25771;-77
2022/04/29 12:01:30;;;;;;;10.63;8.75;;;;;;;19.03;35.19;98045.03;1478717;97;25912;-76